Time;durP1;ratioP1;P1;durP2;ratioP2;P2;SDS_P1;SDS_P2;PMS_P1;PMS_P2;Temp;Humidity;BMP_temperature;BMP_pressure;BME280_temperature;BME280_humidity;BME280_pressure;Samples;Min_cycle;Max_cycle;Signal;HPM_P1;HPM_P2
2022/05/01 00:00:05;;;;;;;11.30;3.83;;;;;;;;;;5032711;28;20045;-57
2022/05/01 00:02:32;;;;;;;7.93;3.40;;;;;;;;;;5026097;28;20076;-58
2022/05/01 00:04:58;;;;;;;7.30;3.00;;;;;;;;;;5032973;28;20188;-56
2022/05/01 00:07:26;;;;;;;9.80;3.20;;;;;;;;;;5027649;28;20045;-58
2022/05/01 00:09:56;;;;;;;6.47;2.80;;;;;;;;;;5033746;28;20045;-57
2022/05/01 00:12:24;;;;;;;6.97;3.47;;;;;;;;;;5028012;28;20053;-54
2022/05/01 00:14:51;;;;;;;6.45;3.20;;;;;;;;;;5047905;28;20056;-57
2022/05/01 00:17:18;;;;;;;6.80;3.17;;;;;;;;;;5015192;28;20081;-56
2022/05/01 00:19:44;;;;;;;9.65;3.67;;;;;;;;;;5046121;28;20064;-55
2022/05/01 00:22:11;;;;;;;7.90;3.92;;;;;;;;;;5018548;28;20065;-54
2022/05/01 00:24:39;;;;;;;7.47;2.95;;;;;;;;;;5010596;28;20073;-57
2022/05/01 00:27:06;;;;;;;10.57;3.70;;;;;;;;;;5010385;28;20053;-57
2022/05/01 00:29:32;;;;;;;6.90;3.08;;;;;;;;;;5046865;28;20139;-53
2022/05/01 00:32:00;;;;;;;9.52;4.57;;;;;;;;;;5023441;28;20053;-55
2022/05/01 00:37:10;;;;;;;5.50;2.78;;;;;;;;;;5027619;28;20061;-57
2022/05/01 00:39:37;;;;;;;7.88;3.10;;;;;;;;;;5033277;28;20107;-55
2022/05/01 00:42:05;;;;;;;8.30;3.75;;;;;;;;;;5013752;28;20068;-57
2022/05/01 00:44:33;;;;;;;9.93;4.15;;;;;;;;;;5031994;28;20068;-57
2022/05/01 00:47:00;;;;;;;6.55;2.90;;;;;;;;;;5032579;28;20057;-54
2022/05/01 00:49:27;;;;;;;7.22;3.00;;;;;;;;;;5026620;28;20056;-58
2022/05/01 00:51:55;;;;;;;9.35;4.45;;;;;;;;;;5032509;28;20049;-54
2022/05/01 00:54:23;;;;;;;8.43;2.78;;;;;;;;;;5038180;28;20055;-56
2022/05/01 00:56:51;;;;;;;11.45;4.55;;;;;;;;;;5049647;28;20056;-55
2022/05/01 00:59:19;;;;;;;10.02;4.55;;;;;;;;;;5032957;28;20080;-58
2022/05/01 01:01:47;;;;;;;7.47;3.35;;;;;;;;;;5012202;28;20061;-56
2022/05/01 01:04:14;;;;;;;9.80;4.13;;;;;;;;;;5017865;28;20144;-54
2022/05/01 01:06:41;;;;;;;12.38;5.05;;;;;;;;;;5022603;28;20057;-56
2022/05/01 01:09:09;;;;;;;8.68;3.80;;;;;;;;;;5026874;28;20053;-57
2022/05/01 01:11:43;;;;;;;10.27;3.83;;;;;;;;;;5013968;28;20049;-59
2022/05/01 01:14:10;;;;;;;11.02;4.45;;;;;;;;;;5014159;28;20048;-59
2022/05/01 01:16:38;;;;;;;10.48;4.90;;;;;;;;;;5032413;28;20041;-60
2022/05/01 01:19:05;;;;;;;;;;;;;;;;;;5027805;28;20049;-58
2022/05/01 01:21:37;;;;;;;6.85;3.20;;;;;;;;;;5048475;28;19971;-58
2022/05/01 01:24:06;;;;;;;7.45;3.28;;;;;;;;;;5026673;28;20067;-59
2022/05/01 01:26:34;;;;;;;7.22;3.25;;;;;;;;;;5032156;28;20064;-57
2022/05/01 01:29:00;;;;;;;5.95;3.13;;;;;;;;;;5040667;28;20094;-57
2022/05/01 01:31:42;;;;;;;5.82;3.08;;;;;;;;;;5013773;28;20060;-55
2022/05/01 01:34:10;;;;;;;7.15;3.40;;;;;;;;;;5009685;28;20057;-55
2022/05/01 01:36:37;;;;;;;;;;;;;;;;;;5032000;28;20106;-55
2022/05/01 01:39:05;;;;;;;11.65;3.60;;;;;;;;;;5031974;28;19928;-59
2022/05/01 01:41:33;;;;;;;9.85;4.60;;;;;;;;;;5026080;28;20044;-57
2022/05/01 01:44:00;;;;;;;9.23;4.28;;;;;;;;;;5031469;28;20049;-55
2022/05/01 01:46:26;;;;;;;7.70;3.47;;;;;;;;;;5025269;28;20045;-57
2022/05/01 01:48:53;;;;;;;8.60;3.42;;;;;;;;;;5031603;28;20084;-57
2022/05/01 01:51:20;;;;;;;12.13;4.03;;;;;;;;;;5024505;28;20049;-55
2022/05/01 01:53:47;;;;;;;11.70;4.72;;;;;;;;;;5031044;28;20057;-54
2022/05/01 01:56:16;;;;;;;11.25;5.07;;;;;;;;;;5015783;28;20060;-59
2022/05/01 01:58:42;;;;;;;;;;;;;;;;;;5011768;28;20049;-56
2022/05/01 02:01:11;;;;;;;7.43;3.05;;;;;;;;;;5011180;28;19977;-56
2022/05/01 02:03:37;;;;;;;;;;;;;;;;;;5027107;28;20088;-58
2022/05/01 02:06:05;;;;;;;11.30;3.40;;;;;;;;;;5022727;28;19959;-55
2022/05/01 02:08:34;;;;;;;12.43;4.90;;;;;;;;;;5029662;28;20053;-58
2022/05/01 02:11:00;;;;;;;9.35;4.03;;;;;;;;;;5016057;28;20130;-59
2022/05/01 02:13:28;;;;;;;6.47;3.38;;;;;;;;;;5030619;28;20063;-54
2022/05/01 02:15:55;;;;;;;9.23;4.10;;;;;;;;;;5024163;28;20084;-55
2022/05/01 02:18:21;;;;;;;6.20;3.25;;;;;;;;;;5030111;28;20103;-53
2022/05/01 02:23:34;;;;;;;6.65;3.25;;;;;;;;;;5009894;28;20053;-56
2022/05/01 02:26:00;;;;;;;9.15;3.63;;;;;;;;;;5010749;28;20069;-57
2022/05/01 02:28:28;;;;;;;6.97;3.08;;;;;;;;;;5024435;28;20057;-58
2022/05/01 02:30:55;;;;;;;6.68;3.28;;;;;;;;;;5031376;28;20060;-57
2022/05/01 02:33:22;;;;;;;8.10;3.58;;;;;;;;;;5022071;28;20148;-58
2022/05/01 02:35:49;;;;;;;11.80;4.95;;;;;;;;;;5031389;28;20075;-57
2022/05/01 02:38:15;;;;;;;7.00;3.55;;;;;;;;;;5035879;28;20140;-59
2022/05/01 02:40:42;;;;;;;6.93;3.25;;;;;;;;;;5047850;28;20052;-58
2022/05/01 02:43:09;;;;;;;9.70;4.78;;;;;;;;;;5031747;28;20071;-57
2022/05/01 02:45:38;;;;;;;10.10;3.63;;;;;;;;;;5010208;28;20064;-62
2022/05/01 02:48:04;;;;;;;9.70;3.92;;;;;;;;;;5013783;28;20052;-63
2022/05/01 02:50:31;;;;;;;7.53;3.40;;;;;;;;;;5029939;28;20085;-60
2022/05/01 02:53:07;;;;;;;8.63;3.50;;;;;;;;;;5022317;28;20506;-62
2022/05/01 02:55:34;;;;;;;8.32;3.72;;;;;;;;;;5031522;28;20060;-62
2022/05/01 02:58:00;;;;;;;12.43;4.47;;;;;;;;;;5024723;28;20052;-59
2022/05/01 03:03:50;;;;;;;12.18;4.20;;;;;;;;;;5045703;28;20071;-61
2022/05/01 03:06:16;;;;;;;8.05;3.80;;;;;;;;;;5031219;28;20053;-60
2022/05/01 03:08:44;;;;;;;6.72;3.22;;;;;;;;;;5027821;28;20046;-52
2022/05/01 03:11:11;;;;;;;9.82;4.95;;;;;;;;;;5023048;28;20079;-57
2022/05/01 03:13:37;;;;;;;9.20;4.10;;;;;;;;;;5024904;28;20049;-63
2022/05/01 03:16:04;;;;;;;6.78;3.50;;;;;;;;;;5027179;28;20057;-59
2022/05/01 03:24:08;;;;;;;7.63;3.25;;;;;;;;;;5032890;28;20129;-60
2022/05/01 03:26:41;;;;;;;7.85;3.60;;;;;;;;;;5033798;28;20061;-54
2022/05/01 03:29:08;;;;;;;7.28;3.38;;;;;;;;;;5032878;28;20049;-55
2022/05/01 03:31:35;;;;;;;7.95;3.58;;;;;;;;;;5032920;28;20119;-52
2022/05/01 03:34:03;;;;;;;8.35;3.60;;;;;;;;;;5032166;28;20068;-55
2022/05/01 03:36:32;;;;;;;7.00;3.58;;;;;;;;;;5032675;28;20050;-57
2022/05/01 03:39:01;;;;;;;10.32;3.90;;;;;;;;;;5033164;28;20049;-54
2022/05/01 03:41:28;;;;;;;8.93;3.95;;;;;;;;;;5033320;28;20133;-56
2022/05/01 03:43:57;;;;;;;8.35;4.25;;;;;;;;;;5033426;28;20049;-59
2022/05/01 03:46:25;;;;;;;;;;;;;;;;;;5033961;28;20045;-54
2022/05/01 03:48:52;;;;;;;8.73;3.65;;;;;;;;;;5032529;28;19921;-56
2022/05/01 03:51:20;;;;;;;11.07;4.13;;;;;;;;;;5032678;28;20053;-57
2022/05/01 03:53:47;;;;;;;7.70;3.97;;;;;;;;;;5033467;28;20141;-53
2022/05/01 03:56:16;;;;;;;8.38;3.67;;;;;;;;;;5033556;28;20367;-56
2022/05/01 03:58:43;;;;;;;8.30;4.05;;;;;;;;;;5033287;28;20049;-55
2022/05/01 04:01:10;;;;;;;7.65;3.88;;;;;;;;;;5031537;28;20073;-54
2022/05/01 04:03:36;;;;;;;7.68;3.67;;;;;;;;;;5031577;28;20061;-52
2022/05/01 04:06:03;;;;;;;8.10;3.63;;;;;;;;;;5025051;28;20061;-53
2022/05/01 04:08:30;;;;;;;11.60;4.85;;;;;;;;;;5031344;28;20057;-53
2022/05/01 04:10:57;;;;;;;8.50;3.97;;;;;;;;;;5030866;28;20053;-52
2022/05/01 04:13:25;;;;;;;7.93;3.42;;;;;;;;;;5031817;28;20049;-54
2022/05/01 04:15:51;;;;;;;10.45;3.97;;;;;;;;;;5031227;28;20057;-52
2022/05/01 04:18:18;;;;;;;8.43;3.58;;;;;;;;;;5014475;28;20067;-51
2022/05/01 04:20:47;;;;;;;7.63;3.80;;;;;;;;;;5029679;28;20092;-55
2022/05/01 04:23:14;;;;;;;7.68;3.72;;;;;;;;;;5029297;28;20072;-54
2022/05/01 04:25:41;;;;;;;7.40;3.67;;;;;;;;;;5030383;28;20046;-56
2022/05/01 04:28:08;;;;;;;9.25;4.10;;;;;;;;;;5029728;28;20083;-54
2022/05/01 04:30:37;;;;;;;8.98;3.90;;;;;;;;;;5029800;28;20064;-51
2022/05/01 04:33:05;;;;;;;7.18;3.67;;;;;;;;;;5031036;28;20057;-54
2022/05/01 04:35:33;;;;;;;10.10;4.10;;;;;;;;;;5030135;28;20056;-57
2022/05/01 04:38:01;;;;;;;7.75;3.78;;;;;;;;;;5031272;28;20062;-57
2022/05/01 04:40:29;;;;;;;7.22;3.42;;;;;;;;;;5030138;28;20131;-63
2022/05/01 04:43:01;;;;;;;9.23;4.40;;;;;;;;;;5031414;28;20127;-54
2022/05/01 04:45:28;;;;;;;8.10;3.53;;;;;;;;;;5029895;28;20057;-56
2022/05/01 04:47:56;;;;;;;10.32;3.88;;;;;;;;;;5029367;28;20067;-57
2022/05/01 04:50:23;;;;;;;7.85;3.95;;;;;;;;;;5029108;28;20049;-52
2022/05/01 04:52:49;;;;;;;6.95;3.53;;;;;;;;;;5029349;28;20053;-56
2022/05/01 04:55:17;;;;;;;8.18;4.22;;;;;;;;;;5029245;28;20057;-55
2022/05/01 04:57:43;;;;;;;8.45;4.05;;;;;;;;;;5029297;28;20127;-55
2022/05/01 05:00:11;;;;;;;8.63;3.67;;;;;;;;;;5029293;28;20061;-51
2022/05/01 05:02:39;;;;;;;9.55;3.97;;;;;;;;;;4996182;23;20051;-54
2022/05/01 05:05:10;;;;;;;12.45;5.72;;;;;;;;;;4947161;28;20055;-56
2022/05/01 05:07:37;;;;;;;13.63;6.35;;;;;;;;;;4952455;28;20051;-56
2022/05/01 05:10:03;;;;;;;8.98;4.63;;;;;;;;;;4937020;28;20059;-56
2022/05/01 05:12:31;;;;;;;8.65;4.00;;;;;;;;;;4949471;28;20079;-55
2022/05/01 05:15:00;;;;;;;;;;;;;;;;;;4945342;28;20048;-54
2022/05/01 05:17:27;;;;;;;11.00;4.80;;;;;;;;;;4961622;28;19926;-59
2022/05/01 05:19:54;;;;;;;14.60;5.85;;;;;;;;;;4949991;28;20047;-59
2022/05/01 05:22:23;;;;;;;9.85;4.80;;;;;;;;;;4960851;28;20074;-56
2022/05/01 05:24:50;;;;;;;11.48;5.93;;;;;;;;;;4950281;29;20062;-61
2022/05/01 05:27:17;;;;;;;12.23;5.15;;;;;;;;;;4956461;28;20130;-58
2022/05/01 05:29:44;;;;;;;10.90;4.20;;;;;;;;;;4964120;28;20059;-59
2022/05/01 05:32:11;;;;;;;7.90;4.10;;;;;;;;;;4926316;29;20114;-58
2022/05/01 05:34:37;;;;;;;9.52;4.35;;;;;;;;;;4964772;28;20055;-59
2022/05/01 05:37:04;;;;;;;12.90;5.35;;;;;;;;;;4950478;28;20063;-60
2022/05/01 05:39:32;;;;;;;9.57;3.72;;;;;;;;;;4957086;28;20063;-60
2022/05/01 05:42:00;;;;;;;16.10;6.15;;;;;;;;;;4966515;28;20063;-55
2022/05/01 05:44:27;;;;;;;10.43;4.85;;;;;;;;;;4956689;28;20303;-54
2022/05/01 05:46:54;;;;;;;8.57;3.97;;;;;;;;;;4965190;28;20059;-53
2022/05/01 05:49:21;;;;;;;10.50;3.78;;;;;;;;;;4959535;28;20093;-53
2022/05/01 05:51:49;;;;;;;13.40;4.95;;;;;;;;;;4963692;28;20047;-54
2022/05/01 05:54:15;;;;;;;14.85;4.50;;;;;;;;;;4965255;28;20090;-56
2022/05/01 05:56:44;;;;;;;12.75;6.28;;;;;;;;;;4936295;28;20055;-57
2022/05/01 05:59:11;;;;;;;12.73;5.50;;;;;;;;;;4946807;28;20063;-53
2022/05/01 06:01:38;;;;;;;10.15;4.82;;;;;;;;;;4948995;28;20055;-54
2022/05/01 06:04:05;;;;;;;7.63;3.85;;;;;;;;;;4969455;28;20051;-53
2022/05/01 06:06:31;;;;;;;12.95;5.95;;;;;;;;;;4977236;28;20125;-56
2022/05/01 06:08:58;;;;;;;10.00;3.95;;;;;;;;;;4965591;28;20066;-57
2022/05/01 06:11:28;;;;;;;10.23;4.70;;;;;;;;;;4987247;28;20050;-53
2022/05/01 06:13:56;;;;;;;8.18;4.07;;;;;;;;;;4959933;28;20058;-52
2022/05/01 06:16:23;;;;;;;11.85;5.35;;;;;;;;;;4965893;28;20176;-56
2022/05/01 06:18:49;;;;;;;16.30;6.30;;;;;;;;;;4943631;28;20063;-54
2022/05/01 06:21:16;;;;;;;10.98;5.50;;;;;;;;;;4949079;28;20055;-55
2022/05/01 06:23:45;;;;;;;11.70;5.10;;;;;;;;;;4948878;28;20050;-51
2022/05/01 06:26:12;;;;;;;8.77;4.63;;;;;;;;;;4984786;28;20129;-53
2022/05/01 06:28:39;;;;;;;14.23;6.78;;;;;;;;;;4978185;28;20138;-54
2022/05/01 06:31:07;;;;;;;9.05;4.47;;;;;;;;;;4968252;28;20058;-54
2022/05/01 06:33:35;;;;;;;9.68;5.35;;;;;;;;;;4962283;28;20066;-52
2022/05/01 06:36:02;;;;;;;13.40;6.22;;;;;;;;;;4983990;28;20064;-56
2022/05/01 06:38:29;;;;;;;13.05;5.90;;;;;;;;;;4983422;28;20069;-52
2022/05/01 06:40:57;;;;;;;11.43;5.55;;;;;;;;;;4974096;28;20062;-54
2022/05/01 06:43:27;;;;;;;10.38;4.65;;;;;;;;;;4971616;28;20090;-53
2022/05/01 06:45:53;;;;;;;13.73;6.22;;;;;;;;;;4975354;28;20078;-53
2022/05/01 06:48:21;;;;;;;16.65;6.55;;;;;;;;;;4968707;28;20055;-50
2022/05/01 06:50:48;;;;;;;14.40;5.90;;;;;;;;;;4978018;28;20113;-54
2022/05/01 06:53:15;;;;;;;15.15;7.00;;;;;;;;;;4968255;28;20133;-56
2022/05/01 06:55:42;;;;;;;13.32;6.80;;;;;;;;;;4951120;28;20079;-57
2022/05/01 06:58:09;;;;;;;9.43;4.60;;;;;;;;;;4964812;28;20084;-54
2022/05/01 07:00:35;;;;;;;11.50;4.78;;;;;;;;;;4943716;28;20039;-60
2022/05/01 07:03:04;;;;;;;9.98;4.80;;;;;;;;;;4957314;28;20051;-55
2022/05/01 07:05:31;;;;;;;;;;;;;;;;;;4950315;28;20051;-58
2022/05/01 07:07:59;;;;;;;12.82;5.72;;;;;;;;;;4950079;28;19985;-54
2022/05/01 07:10:27;;;;;;;14.15;6.93;;;;;;;;;;4954090;28;20082;-55
2022/05/01 07:12:53;;;;;;;10.65;5.30;;;;;;;;;;4960247;28;20153;-57
2022/05/01 07:15:20;;;;;;;15.18;6.72;;;;;;;;;;4976800;28;20050;-55
2022/05/01 07:17:47;;;;;;;13.27;6.15;;;;;;;;;;4965986;28;20066;-54
2022/05/01 07:20:13;;;;;;;16.42;6.75;;;;;;;;;;4984391;28;20082;-54
2022/05/01 07:22:40;;;;;;;16.23;6.85;;;;;;;;;;4960248;28;20142;-57
2022/05/01 07:25:09;;;;;;;10.30;4.80;;;;;;;;;;4965134;28;20051;-56
2022/05/01 07:27:36;;;;;;;8.75;4.60;;;;;;;;;;4961201;28;20066;-51
2022/05/01 07:30:03;;;;;;;8.45;4.30;;;;;;;;;;4967303;28;20055;-54
2022/05/01 07:32:31;;;;;;;14.32;4.88;;;;;;;;;;4947224;28;20058;-57
2022/05/01 07:34:57;;;;;;;16.85;7.22;;;;;;;;;;4970640;28;20047;-56
2022/05/01 07:37:26;;;;;;;14.05;6.57;;;;;;;;;;4957387;28;20047;-53
2022/05/01 07:39:54;;;;;;;;;;;;;;;;;;4983847;28;20138;-55
2022/05/01 07:42:29;;;;;;;12.38;5.32;;;;;;;;;;4976966;28;19922;-56
2022/05/01 07:44:55;;;;;;;9.52;4.85;;;;;;;;;;4964718;28;20051;-53
2022/05/01 07:47:22;;;;;;;11.18;5.47;;;;;;;;;;4977257;28;20149;-54
2022/05/01 07:49:48;;;;;;;14.60;5.82;;;;;;;;;;4981993;28;20062;-55
2022/05/01 07:52:17;;;;;;;12.80;6.60;;;;;;;;;;4973487;28;20066;-57
2022/05/01 07:54:43;;;;;;;13.63;6.45;;;;;;;;;;4982766;28;20058;-59
2022/05/01 07:57:10;;;;;;;15.73;7.15;;;;;;;;;;4974568;28;20066;-54
2022/05/01 07:59:38;;;;;;;12.18;5.90;;;;;;;;;;4982204;28;20065;-56
2022/05/01 08:02:05;;;;;;;8.85;4.13;;;;;;;;;;4955819;28;20046;-57
2022/05/01 08:04:30;;;;;;;12.02;5.78;;;;;;;;;;4963696;28;20050;-55
2022/05/01 08:06:58;;;;;;;11.90;6.25;;;;;;;;;;4963039;28;20059;-56
2022/05/01 08:09:25;;;;;;;12.07;5.10;;;;;;;;;;4975284;28;20089;-60
2022/05/01 08:11:52;;;;;;;9.43;4.10;;;;;;;;;;4985146;28;20080;-58
2022/05/01 08:14:20;;;;;;;10.73;4.55;;;;;;;;;;4962690;28;20051;-57
2022/05/01 08:16:49;;;;;;;9.70;4.40;;;;;;;;;;4985836;28;20065;-57
2022/05/01 08:21:59;;;;;;;9.90;3.88;;;;;;;;;;4967952;28;19959;-56
2022/05/01 08:24:26;;;;;;;7.78;4.10;;;;;;;;;;4977812;28;20054;-58
2022/05/01 08:26:53;;;;;;;11.98;4.85;;;;;;;;;;4985532;28;20051;-58
2022/05/01 08:29:19;;;;;;;10.50;4.63;;;;;;;;;;4959795;28;20051;-58
2022/05/01 08:31:46;;;;;;;12.52;4.68;;;;;;;;;;4987527;28;20062;-55
2022/05/01 08:34:14;;;;;;;13.70;5.55;;;;;;;;;;4980630;28;20082;-57
2022/05/01 08:36:41;;;;;;;13.30;5.03;;;;;;;;;;4984680;28;20051;-60
2022/05/01 08:39:09;;;;;;;8.73;4.30;;;;;;;;;;4946924;28;20122;-55
2022/05/01 08:41:36;;;;;;;10.07;4.00;;;;;;;;;;4953461;28;20063;-59
2022/05/01 08:44:03;;;;;;;11.82;4.55;;;;;;;;;;4974510;28;20350;-60
2022/05/01 08:46:41;;;;;;;8.55;4.15;;;;;;;;;;4967625;28;20102;-58
2022/05/01 08:49:07;;;;;;;9.82;4.55;;;;;;;;;;4963750;28;20055;-57
2022/05/01 08:51:36;;;;;;;9.82;5.10;;;;;;;;;;4984906;28;20051;-57
2022/05/01 08:54:07;;;;;;;12.07;5.15;;;;;;;;;;4977471;28;20051;-57
2022/05/01 08:56:34;;;;;;;9.57;4.03;;;;;;;;;;4984966;28;20097;-54
2022/05/01 08:59:01;;;;;;;8.30;3.85;;;;;;;;;;4984340;28;20061;-59
2022/05/01 09:01:30;;;;;;;8.80;3.88;;;;;;;;;;4979173;28;20067;-58
2022/05/01 09:03:57;;;;;;;8.07;3.90;;;;;;;;;;4968267;28;20058;-59
2022/05/01 09:06:26;;;;;;;11.05;4.47;;;;;;;;;;4978597;28;20053;-58
2022/05/01 09:08:54;;;;;;;9.48;4.28;;;;;;;;;;4985368;28;20054;-56
2022/05/01 09:14:05;;;;;;;8.88;3.75;;;;;;;;;;4994276;28;20104;-57
2022/05/01 09:16:32;;;;;;;6.38;3.28;;;;;;;;;;4998980;28;20054;-58
2022/05/01 09:18:59;;;;;;;6.13;3.13;;;;;;;;;;4991447;28;20046;-59
2022/05/01 09:21:26;;;;;;;6.80;3.22;;;;;;;;;;4992930;28;20046;-59
2022/05/01 09:23:52;;;;;;;7.93;3.67;;;;;;;;;;5007441;28;20121;-57
2022/05/01 09:26:22;;;;;;;8.57;3.70;;;;;;;;;;5000313;28;20499;-58
2022/05/01 09:28:49;;;;;;;7.30;3.28;;;;;;;;;;4990471;28;20046;-58
2022/05/01 09:31:16;;;;;;;9.30;4.20;;;;;;;;;;4984350;28;20050;-58
2022/05/01 09:33:42;;;;;;;7.65;3.40;;;;;;;;;;4989531;28;20076;-59
2022/05/01 09:36:10;;;;;;;7.60;2.90;;;;;;;;;;4998286;28;20058;-58
2022/05/01 09:38:36;;;;;;;6.97;3.55;;;;;;;;;;4987261;28;20070;-61
2022/05/01 09:41:13;;;;;;;9.07;3.40;;;;;;;;;;4967858;28;20068;-61
2022/05/01 09:43:42;;;;;;;5.85;3.13;;;;;;;;;;4989764;28;20046;-60
2022/05/01 09:46:17;;;;;;;7.43;3.05;;;;;;;;;;5000280;28;20053;-61
2022/05/01 09:48:44;;;;;;;6.25;3.28;;;;;;;;;;5006192;28;20117;-61
2022/05/01 09:51:16;;;;;;;6.20;3.17;;;;;;;;;;5002783;28;20061;-58
2022/05/01 09:53:43;;;;;;;8.57;3.20;;;;;;;;;;4989865;28;20064;-60
2022/05/01 09:56:10;;;;;;;6.63;3.22;;;;;;;;;;5007803;28;20135;-61
2022/05/01 09:58:40;;;;;;;6.40;2.75;;;;;;;;;;4986287;28;20049;-59
2022/05/01 10:01:12;;;;;;;5.97;2.20;;;;;;;;;;4991315;28;20050;-59
2022/05/01 10:03:40;;;;;;;8.45;2.33;;;;;;;;;;4985310;28;20126;-60
2022/05/01 10:06:09;;;;;;;5.00;2.53;;;;;;;;;;4987163;28;20078;-59
2022/05/01 10:08:37;;;;;;;9.85;2.65;;;;;;;;;;4985432;28;20131;-61
2022/05/01 10:11:04;;;;;;;5.57;2.53;;;;;;;;;;4991234;28;20054;-59
2022/05/01 10:13:32;;;;;;;7.32;2.80;;;;;;;;;;4991218;28;20092;-62
2022/05/01 10:15:58;;;;;;;8.00;2.67;;;;;;;;;;4991672;28;20077;-59
2022/05/01 10:18:28;;;;;;;4.35;2.38;;;;;;;;;;4984506;28;20060;-59
2022/05/01 10:20:54;;;;;;;5.82;2.15;;;;;;;;;;5006065;28;20068;-62
2022/05/01 10:23:21;;;;;;;5.72;2.50;;;;;;;;;;4984041;28;20046;-63
2022/05/01 10:25:49;;;;;;;10.40;3.00;;;;;;;;;;4989954;28;20145;-59
2022/05/01 10:28:30;;;;;;;4.35;2.38;;;;;;;;;;4982154;28;20054;-62
2022/05/01 10:33:59;;;;;;;7.22;2.78;;;;;;;;;;4995544;28;20043;-61
2022/05/01 10:36:44;;;;;;;6.13;2.70;;;;;;;;;;4986029;28;20049;-62
2022/05/01 10:39:13;;;;;;;4.65;2.28;;;;;;;;;;4975110;28;20053;-60
2022/05/01 10:41:41;;;;;;;4.20;2.17;;;;;;;;;;4991455;28;20080;-60
2022/05/01 10:44:08;;;;;;;5.10;2.35;;;;;;;;;;4985885;28;20065;-59
2022/05/01 10:46:34;;;;;;;6.10;2.55;;;;;;;;;;4992537;28;20046;-59
2022/05/01 10:49:05;;;;;;;4.63;2.30;;;;;;;;;;4987439;28;20046;-59
2022/05/01 10:51:52;;;;;;;4.97;2.50;;;;;;;;;;5008589;28;20593;-59
2022/05/01 10:54:36;;;;;;;4.80;2.22;;;;;;;;;;4997506;28;20061;-58
2022/05/01 10:57:07;;;;;;;5.43;2.40;;;;;;;;;;4989648;28;20054;-59
2022/05/01 10:59:35;;;;;;;4.65;2.58;;;;;;;;;;4981803;28;20084;-57
2022/05/01 11:02:03;;;;;;;4.13;2.22;;;;;;;;;;4986181;28;20042;-58
2022/05/01 11:04:32;;;;;;;5.63;2.45;;;;;;;;;;4995800;28;20046;-61
2022/05/01 11:07:01;;;;;;;5.45;2.33;;;;;;;;;;5002641;28;20070;-58
2022/05/01 11:09:27;;;;;;;;;;;;;;;;;;4978317;28;20089;-58
2022/05/01 11:11:55;;;;;;;6.60;2.83;;;;;;;;;;5001008;28;19936;-63
2022/05/01 11:37:48;;;;;;;10.13;3.42;;;;;;;;;;5140730;23;20066;-64
2022/05/01 11:40:23;;;;;;;7.47;2.78;;;;;;;;;;4970414;28;20046;-64
2022/05/01 11:42:51;;;;;;;7.03;2.92;;;;;;;;;;4980383;28;20062;-65
2022/05/01 11:45:18;;;;;;;5.85;2.40;;;;;;;;;;4985538;28;20058;-64
2022/05/01 11:47:48;;;;;;;11.30;2.80;;;;;;;;;;4973675;28;20089;-68
2022/05/01 11:50:19;;;;;;;8.10;2.60;;;;;;;;;;4971490;28;20054;-63
2022/05/01 11:52:47;;;;;;;6.85;3.15;;;;;;;;;;4974616;28;20132;-65
2022/05/01 11:55:15;;;;;;;7.15;2.67;;;;;;;;;;4970157;28;20076;-62
2022/05/01 12:03:12;;;;;;;5.88;2.50;;;;;;;;;;4967987;28;20041;-67
2022/05/01 12:05:44;;;;;;;8.80;2.90;;;;;;;;;;4967677;28;20141;-61
2022/05/01 12:08:11;;;;;;;7.70;2.92;;;;;;;;;;4969920;28;20058;-60
2022/05/01 12:10:42;;;;;;;6.30;2.70;;;;;;;;;;4962523;28;20046;-60
2022/05/01 12:13:19;;;;;;;6.75;3.40;;;;;;;;;;4958851;28;20043;-62
2022/05/01 12:15:45;;;;;;;5.97;2.92;;;;;;;;;;4964104;28;20062;-60
2022/05/01 12:18:12;;;;;;;9.70;3.15;;;;;;;;;;4970341;28;20145;-61
2022/05/01 12:20:39;;;;;;;10.25;3.45;;;;;;;;;;4966598;28;20061;-61
2022/05/01 12:23:11;;;;;;;6.30;2.95;;;;;;;;;;4986577;28;20054;-61
2022/05/01 12:25:40;;;;;;;5.75;2.60;;;;;;;;;;4968215;28;20054;-61
2022/05/01 12:28:10;;;;;;;5.93;2.90;;;;;;;;;;4973840;28;20056;-60
2022/05/01 12:30:37;;;;;;;6.93;2.83;;;;;;;;;;4983801;28;20058;-60
2022/05/01 12:33:04;;;;;;;5.97;2.60;;;;;;;;;;4972733;28;20451;-60
2022/05/01 12:35:45;;;;;;;6.45;3.15;;;;;;;;;;4959625;28;20055;-61
2022/05/01 12:38:13;;;;;;;7.45;3.28;;;;;;;;;;4963864;28;20143;-60
2022/05/01 12:46:21;;;;;;;5.78;2.63;;;;;;;;;;4963081;28;20051;-61
2022/05/01 12:48:47;;;;;;;;;;;;;;;;;;4954145;28;20059;-61
2022/05/01 12:51:14;;;;;;;8.65;3.10;;;;;;;;;;4945665;28;19926;-61
2022/05/01 12:53:42;;;;;;;8.60;3.10;;;;;;;;;;4951221;28;20085;-62
2022/05/01 12:56:16;;;;;;;7.03;3.20;;;;;;;;;;4945279;28;20049;-62
2022/05/01 12:58:44;;;;;;;5.55;2.58;;;;;;;;;;4966753;28;20063;-66
2022/05/01 13:01:22;;;;;;;5.65;2.53;;;;;;;;;;4936784;28;20066;-59
2022/05/01 13:03:49;;;;;;;5.65;2.70;;;;;;;;;;4968770;28;20051;-58
2022/05/01 13:06:16;;;;;;;6.07;2.80;;;;;;;;;;4945133;28;20058;-56
2022/05/01 13:08:43;;;;;;;7.32;2.97;;;;;;;;;;4967898;28;20069;-59
2022/05/01 13:11:14;;;;;;;5.30;2.97;;;;;;;;;;4967840;28;20051;-61
2022/05/01 13:13:50;;;;;;;5.53;2.50;;;;;;;;;;4953275;28;20146;-60
2022/05/01 13:16:17;;;;;;;6.10;2.58;;;;;;;;;;4946120;28;20055;-60
2022/05/01 13:18:44;;;;;;;5.50;2.70;;;;;;;;;;4952174;28;20076;-60
2022/05/01 13:21:11;;;;;;;6.38;2.63;;;;;;;;;;4951632;28;20054;-60
2022/05/01 13:23:39;;;;;;;6.72;2.42;;;;;;;;;;4961474;28;20110;-60
2022/05/01 13:26:06;;;;;;;7.57;2.67;;;;;;;;;;4953292;28;20062;-60
2022/05/01 13:28:32;;;;;;;6.80;2.97;;;;;;;;;;4944749;28;20125;-60
2022/05/01 13:31:00;;;;;;;6.07;2.33;;;;;;;;;;4951734;28;20055;-60
2022/05/01 13:33:27;;;;;;;6.07;2.35;;;;;;;;;;4944955;28;20110;-60
2022/05/01 13:35:54;;;;;;;7.13;2.63;;;;;;;;;;4952250;28;20146;-60
2022/05/01 13:38:20;;;;;;;5.63;2.60;;;;;;;;;;4956490;28;20053;-59
2022/05/01 13:46:16;;;;;;;7.45;3.05;;;;;;;;;;4987222;28;20053;-60
2022/05/01 13:48:43;;;;;;;6.53;3.35;;;;;;;;;;4966369;28;20062;-60
2022/05/01 13:51:10;;;;;;;10.27;3.08;;;;;;;;;;4983265;28;20133;-60
2022/05/01 13:53:37;;;;;;;5.55;2.67;;;;;;;;;;4965477;28;20176;-60
2022/05/01 13:56:04;;;;;;;6.20;2.33;;;;;;;;;;4971812;28;20096;-60
2022/05/01 13:58:30;;;;;;;4.53;2.40;;;;;;;;;;4976507;28;20053;-61
2022/05/01 14:01:00;;;;;;;6.20;2.20;;;;;;;;;;4972673;28;20050;-60
2022/05/01 14:03:28;;;;;;;8.77;2.78;;;;;;;;;;4965475;28;20059;-60
2022/05/01 14:05:55;;;;;;;7.10;2.53;;;;;;;;;;4973050;28;20078;-60
2022/05/01 14:08:22;;;;;;;5.22;2.28;;;;;;;;;;4973469;28;20046;-60
2022/05/01 14:10:49;;;;;;;4.63;2.20;;;;;;;;;;4970684;28;20050;-60
2022/05/01 14:13:15;;;;;;;4.45;2.30;;;;;;;;;;4985704;28;20046;-60
2022/05/01 14:15:42;;;;;;;7.57;3.55;;;;;;;;;;4976413;28;20085;-60
2022/05/01 14:18:09;;;;;;;6.38;2.47;;;;;;;;;;4970894;28;20050;-60
2022/05/01 14:20:37;;;;;;;4.82;2.50;;;;;;;;;;4963722;28;20177;-60
2022/05/01 14:23:06;;;;;;;5.32;1.85;;;;;;;;;;4952312;28;20138;-60
2022/05/01 14:25:32;;;;;;;;;;;;;;;;;;4970890;28;20055;-60
2022/05/01 14:27:59;;;;;;;7.00;2.80;;;;;;;;;;4970476;28;19922;-60
2022/05/01 14:30:25;;;;;;;3.40;2.00;;;;;;;;;;4964405;28;20058;-60
2022/05/01 14:32:54;;;;;;;6.93;2.72;;;;;;;;;;4971532;28;20057;-60
2022/05/01 14:35:21;;;;;;;5.82;2.78;;;;;;;;;;4973743;28;20077;-60
2022/05/01 14:37:52;;;;;;;8.13;2.75;;;;;;;;;;4964656;28;20066;-60
2022/05/01 14:40:19;;;;;;;6.55;2.30;;;;;;;;;;4942073;28;20051;-60
2022/05/01 14:42:48;;;;;;;4.40;2.30;;;;;;;;;;4966392;28;20119;-60
2022/05/01 14:45:16;;;;;;;5.18;2.22;;;;;;;;;;4961077;28;20058;-60
2022/05/01 14:47:45;;;;;;;5.05;2.28;;;;;;;;;;4961518;28;20061;-60
2022/05/01 14:50:12;;;;;;;4.72;1.90;;;;;;;;;;4957029;28;20051;-60
2022/05/01 14:52:40;;;;;;;5.00;1.98;;;;;;;;;;4966117;28;20061;-60
2022/05/01 14:55:08;;;;;;;5.97;2.80;;;;;;;;;;4960074;28;20050;-60
2022/05/01 14:57:35;;;;;;;8.32;3.13;;;;;;;;;;4948910;28;20055;-60
2022/05/01 15:08:31;;;;;;;4.85;2.28;;;;;;;;;;4913570;29;20066;-60
2022/05/01 15:11:06;;;;;;;4.22;2.08;;;;;;;;;;4946261;28;20055;-60
2022/05/01 15:13:33;;;;;;;5.78;2.30;;;;;;;;;;4967575;28;20059;-60
2022/05/01 15:16:02;;;;;;;3.67;1.98;;;;;;;;;;4960108;28;20061;-60
2022/05/01 15:18:35;;;;;;;5.13;2.28;;;;;;;;;;4965860;28;20054;-60
2022/05/01 15:21:10;;;;;;;11.30;3.58;;;;;;;;;;4962141;28;20118;-60
2022/05/01 15:23:43;;;;;;;6.20;2.80;;;;;;;;;;4977383;28;20079;-60
2022/05/01 15:26:11;;;;;;;6.65;2.65;;;;;;;;;;4967265;28;20059;-60
2022/05/01 15:28:39;;;;;;;5.72;2.28;;;;;;;;;;4969154;28;20051;-60
2022/05/01 15:31:07;;;;;;;7.72;3.13;;;;;;;;;;4970995;28;20051;-60
2022/05/01 15:33:44;;;;;;;6.55;3.08;;;;;;;;;;4961610;28;20087;-61
2022/05/01 15:36:16;;;;;;;9.70;3.13;;;;;;;;;;4970513;28;20057;-60
2022/05/01 15:38:46;;;;;;;5.00;2.38;;;;;;;;;;4966297;28;20085;-61
2022/05/01 15:41:28;;;;;;;7.00;2.50;;;;;;;;;;4986488;28;20058;-61
2022/05/01 15:43:58;;;;;;;5.00;2.22;;;;;;;;;;4965329;28;20062;-60
2022/05/01 15:46:29;;;;;;;5.38;2.40;;;;;;;;;;4970734;28;20062;-60
2022/05/01 15:54:30;;;;;;;4.50;2.17;;;;;;;;;;4964791;28;20089;-60
2022/05/01 15:57:00;;;;;;;4.57;1.85;;;;;;;;;;4970782;28;20058;-60
2022/05/01 15:59:28;;;;;;;7.47;3.35;;;;;;;;;;4981469;28;20084;-60
2022/05/01 16:01:56;;;;;;;6.93;2.00;;;;;;;;;;4963393;28;20050;-61
2022/05/01 16:04:23;;;;;;;4.65;2.10;;;;;;;;;;4963127;28;20054;-60